createdAt,value
2019-04-01T00:00:35.536Z,9.70
2019-04-01T00:03:07.382Z,9.60
2019-04-01T00:05:37.966Z,9.60
2019-04-01T00:08:08.434Z,9.70
2019-04-01T00:10:39.139Z,9.60
2019-04-01T00:13:09.711Z,9.50
2019-04-01T00:15:40.218Z,9.60
2019-04-01T00:18:10.757Z,9.50
2019-04-01T00:20:41.640Z,9.40
2019-04-01T00:23:12.416Z,9.40
2019-04-01T00:25:42.948Z,9.40
2019-04-01T00:28:13.345Z,9.40
2019-04-01T00:30:44.109Z,9.40
2019-04-01T00:33:14.474Z,9.30
2019-04-01T00:35:45.030Z,9.30
2019-04-01T00:38:15.542Z,9.30
2019-04-01T00:40:46.182Z,9.20
2019-04-01T00:43:34.095Z,9.20
2019-04-01T00:46:05.227Z,9.20
2019-04-01T00:48:35.745Z,9.20
2019-04-01T00:51:06.334Z,9.20
2019-04-01T00:53:36.998Z,9.20
2019-04-01T00:56:07.544Z,9.10
2019-04-01T00:58:38.105Z,9.00
2019-04-01T01:01:08.757Z,9.00
2019-04-01T01:03:40.456Z,9.00
2019-04-01T01:06:11.061Z,8.90
2019-04-01T01:08:41.534Z,8.90
2019-04-01T01:11:12.253Z,8.90
2019-04-01T01:13:42.664Z,8.90
2019-04-01T01:16:13.096Z,8.90
2019-04-01T01:18:43.547Z,8.90
2019-04-01T01:21:14.043Z,8.80
2019-04-01T01:23:44.601Z,8.70
2019-04-01T01:26:15.163Z,8.60
2019-04-01T01:28:45.716Z,8.70
2019-04-01T01:31:16.260Z,8.60
2019-04-01T01:33:46.807Z,8.70
2019-04-01T01:36:17.344Z,8.60
2019-04-01T01:38:48.111Z,8.50
2019-04-01T01:41:18.623Z,8.40
2019-04-01T01:43:49.217Z,8.40
2019-04-01T01:46:19.615Z,8.50
2019-04-01T01:48:50.061Z,8.50
2019-04-01T01:51:20.472Z,8.40
2019-04-01T01:53:50.945Z,8.40
2019-04-01T01:56:21.426Z,8.40
2019-04-01T01:58:51.888Z,8.10
2019-04-01T02:01:22.188Z,8.10
2019-04-01T02:03:52.563Z,8.10
2019-04-01T02:06:22.951Z,8.00
2019-04-01T02:08:53.327Z,8.00
2019-04-01T02:11:23.764Z,8.00
2019-04-01T02:13:54.168Z,8.00
2019-04-01T02:16:24.671Z,8.00
2019-04-01T02:18:55.009Z,8.00
2019-04-01T02:21:25.351Z,8.00
2019-04-01T02:23:55.788Z,8.00
2019-04-01T02:26:26.227Z,8.00
2019-04-01T02:28:56.615Z,8.00
2019-04-01T02:31:27.064Z,7.90
2019-04-01T02:33:57.457Z,7.80
2019-04-01T02:36:27.848Z,7.80
2019-04-01T02:38:58.296Z,7.80
2019-04-01T02:41:28.778Z,7.70
2019-04-01T02:43:59.184Z,7.60
2019-04-01T02:46:29.654Z,7.70
2019-04-01T02:49:00.148Z,7.60
2019-04-01T02:51:30.545Z,7.50
2019-04-01T02:54:00.942Z,7.50
2019-04-01T02:56:31.425Z,7.50
2019-04-01T02:59:01.864Z,7.40
2019-04-01T03:01:32.333Z,7.40
2019-04-01T03:04:02.805Z,7.40
2019-04-01T03:06:33.202Z,7.30
2019-04-01T03:09:05.836Z,7.30
2019-04-01T03:11:36.312Z,7.30
2019-04-01T03:14:06.625Z,7.40
2019-04-01T03:16:37.031Z,7.40
2019-04-01T03:19:07.515Z,7.40
2019-04-01T03:21:37.806Z,7.40
2019-04-01T03:24:08.120Z,7.50
2019-04-01T03:26:38.518Z,7.40
2019-04-01T03:29:08.914Z,7.40
2019-04-01T03:31:39.242Z,7.30
2019-04-01T03:34:09.710Z,7.20
2019-04-01T03:36:40.160Z,7.10
2019-04-01T03:39:10.640Z,7.10
2019-04-01T03:41:41.069Z,7.00
2019-04-01T03:44:11.597Z,7.00
2019-04-01T03:46:42.088Z,7.10
2019-04-01T03:49:12.914Z,7.10
2019-04-01T03:51:43.425Z,7.20
2019-04-01T03:54:13.938Z,7.20
2019-04-01T03:56:44.294Z,7.10
2019-04-01T03:59:14.721Z,7.10
2019-04-01T04:01:45.169Z,7.10
2019-04-01T04:04:15.741Z,7.10
2019-04-01T04:06:46.195Z,7.00
2019-04-01T04:09:16.675Z,7.00
2019-04-01T04:11:47.016Z,6.90
2019-04-01T04:14:17.413Z,6.90
2019-04-01T04:16:47.796Z,6.90
2019-04-01T04:19:18.073Z,6.80
2019-04-01T04:21:48.644Z,6.80
2019-04-01T04:24:19.250Z,6.80
2019-04-01T04:26:49.624Z,6.80
2019-04-01T04:29:20.065Z,6.70
2019-04-01T04:31:50.476Z,6.70
2019-04-01T04:34:20.866Z,6.70
2019-04-01T04:36:51.346Z,6.80
2019-04-01T04:39:21.795Z,6.80
2019-04-01T04:41:52.138Z,6.70
2019-04-01T04:44:22.631Z,6.60
2019-04-01T04:46:53.010Z,6.70
2019-04-01T04:49:23.455Z,6.70
2019-04-01T04:51:53.960Z,6.70
2019-04-01T04:54:24.363Z,6.60
2019-04-01T04:56:54.712Z,6.60
2019-04-01T04:59:25.168Z,6.60
2019-04-01T05:01:55.493Z,6.50
2019-04-01T05:04:25.944Z,6.50
2019-04-01T05:06:56.515Z,6.60
2019-04-01T05:09:26.934Z,6.60
2019-04-01T05:11:57.424Z,6.60
2019-04-01T05:14:27.839Z,6.60
2019-04-01T05:16:58.321Z,6.60
2019-04-01T05:19:28.776Z,6.60
2019-04-01T05:22:00.917Z,6.70
2019-04-01T05:24:32.389Z,6.70
2019-04-01T05:27:05.126Z,6.70
2019-04-01T05:29:36.760Z,6.80
2019-04-01T05:32:07.282Z,6.80
2019-04-01T05:34:40.132Z,6.90
2019-04-01T05:37:10.556Z,6.90
2019-04-01T05:39:41.460Z,7.00
2019-04-01T05:42:11.920Z,7.00
2019-04-01T05:44:42.330Z,7.10
2019-04-01T05:47:12.847Z,7.20
2019-04-01T05:49:43.359Z,7.20
2019-04-01T05:52:13.810Z,7.30
2019-04-01T05:54:45.295Z,7.30
2019-04-01T05:57:16.336Z,7.40
2019-04-01T05:59:47.354Z,7.40
2019-04-01T06:02:17.820Z,7.40
2019-04-01T06:04:48.262Z,7.50
2019-04-01T06:07:19.055Z,7.60
2019-04-01T06:09:49.543Z,7.70
2019-04-01T06:12:19.924Z,7.90
2019-04-01T06:14:50.424Z,7.90
2019-04-01T06:17:20.820Z,8.00
2019-04-01T06:19:51.841Z,8.10
2019-04-01T06:22:22.258Z,8.10
2019-04-01T06:24:53.640Z,8.10
2019-04-01T06:27:24.715Z,8.20
2019-04-01T06:29:59.149Z,8.20
2019-04-01T06:32:28.347Z,8.20
2019-04-01T06:34:58.658Z,8.30
2019-04-01T06:37:29.040Z,8.40
2019-04-01T06:40:00.060Z,8.40
2019-04-01T06:42:30.479Z,8.50
2019-04-01T06:45:00.954Z,8.50
2019-04-01T06:47:31.406Z,8.70
2019-04-01T06:50:01.809Z,8.90
2019-04-01T06:52:32.168Z,9.10
2019-04-01T06:55:02.672Z,9.30
2019-04-01T06:57:33.105Z,9.40
2019-04-01T07:00:03.556Z,9.60
2019-04-01T07:02:34.313Z,9.80
2019-04-01T07:05:05.267Z,9.90
2019-04-01T07:07:35.748Z,10.00
2019-04-01T07:10:06.600Z,10.40
2019-04-01T07:12:37.006Z,10.30
2019-04-01T07:15:07.936Z,10.50
2019-04-01T07:17:38.344Z,10.60
2019-04-01T07:20:09.255Z,10.70
2019-04-01T07:22:39.654Z,10.90
2019-04-01T07:25:10.718Z,11.10
2019-04-01T07:27:41.489Z,11.30
2019-04-01T07:30:13.262Z,11.30
2019-04-01T07:32:43.804Z,11.40
2019-04-01T07:35:14.673Z,11.50
2019-04-01T07:37:44.977Z,11.90
2019-04-01T07:40:15.417Z,11.80
2019-04-01T07:42:46.015Z,12.00
2019-04-01T07:45:16.451Z,12.10
2019-04-01T07:47:46.932Z,12.40
2019-04-01T07:50:17.670Z,12.20
2019-04-01T07:52:48.195Z,12.60
2019-04-01T07:55:18.693Z,12.70
2019-04-01T07:57:49.060Z,12.90
2019-04-01T08:00:19.745Z,13.00
2019-04-01T08:02:50.272Z,12.60
2019-04-01T08:05:20.849Z,12.70
2019-04-01T08:07:51.512Z,12.70
2019-04-01T08:10:21.998Z,12.80
2019-04-01T08:12:52.521Z,13.30
2019-04-01T08:15:22.963Z,13.30
2019-04-01T08:17:53.470Z,13.50
2019-04-01T08:20:24.049Z,12.90
2019-04-01T08:22:54.513Z,12.80
2019-04-01T08:25:24.957Z,13.10
2019-04-01T08:27:55.407Z,13.40
2019-04-01T08:30:25.909Z,13.60
2019-04-01T08:32:56.399Z,13.90
2019-04-01T08:35:26.915Z,14.10
2019-04-01T08:37:57.483Z,14.60
2019-04-01T08:40:28.006Z,14.50
2019-04-01T08:42:58.368Z,14.30
2019-04-01T08:45:28.793Z,14.10
2019-04-01T08:47:59.185Z,14.00
2019-04-01T08:50:29.699Z,14.00
2019-04-01T08:53:00.171Z,14.20
2019-04-01T08:55:30.832Z,14.00
2019-04-01T08:58:01.288Z,14.20
2019-04-01T09:00:31.706Z,14.70
2019-04-01T09:03:02.116Z,14.70
2019-04-01T09:05:32.677Z,15.00
2019-04-01T09:08:03.178Z,14.80
2019-04-01T09:10:33.615Z,13.80
2019-04-01T09:13:04.554Z,14.10
2019-04-01T09:15:35.152Z,14.70
2019-04-01T09:18:05.579Z,15.40
2019-04-01T09:20:36.043Z,16.00
2019-04-01T09:23:06.477Z,16.60
2019-04-01T09:25:36.949Z,17.10
2019-04-01T09:28:07.324Z,17.10
2019-04-01T09:30:38.044Z,17.10
2019-04-01T09:33:08.473Z,16.80
2019-04-01T09:35:40.841Z,16.20
2019-04-01T09:38:11.087Z,15.90
2019-04-01T09:40:41.554Z,15.80
2019-04-01T09:43:14.112Z,15.60
2019-04-01T09:45:44.092Z,15.50
2019-04-01T09:48:14.532Z,15.70
2019-04-01T09:50:44.907Z,16.20
2019-04-01T09:53:15.445Z,16.40
2019-04-01T09:55:45.968Z,16.20
2019-04-01T09:58:16.506Z,15.60
2019-04-01T10:00:53.249Z,16.00
2019-04-01T10:03:22.817Z,16.50
2019-04-01T10:05:53.204Z,16.90
2019-04-01T10:08:23.652Z,16.50
2019-04-01T10:10:54.135Z,16.90
2019-04-01T10:13:24.602Z,16.70
2019-04-01T10:15:55.050Z,17.40
2019-04-01T10:18:25.518Z,17.80
2019-04-01T10:20:55.970Z,18.20
2019-04-01T10:23:26.291Z,18.30
2019-04-01T10:25:56.692Z,18.80
2019-04-01T10:28:27.114Z,19.00
2019-04-01T10:30:57.633Z,20.10
2019-04-01T10:33:28.111Z,20.20
2019-04-01T10:35:58.497Z,20.00
2019-04-01T10:38:28.947Z,19.60
2019-04-01T10:40:59.430Z,19.80
2019-04-01T10:43:29.801Z,20.50
2019-04-01T10:46:00.247Z,19.90
2019-04-01T10:48:30.883Z,19.10
2019-04-01T10:51:01.539Z,18.50
2019-04-01T10:53:32.049Z,18.00
2019-04-01T10:56:02.567Z,17.30
2019-04-01T10:58:32.995Z,17.80
2019-04-01T11:01:03.661Z,18.20
2019-04-01T11:03:34.102Z,18.70
2019-04-01T11:06:04.653Z,19.10
2019-04-01T11:08:35.272Z,18.70
2019-04-01T11:11:05.737Z,18.10
2019-04-01T11:13:36.158Z,19.10
2019-04-01T11:16:06.692Z,19.60
2019-04-01T11:18:37.113Z,20.40
2019-04-01T11:21:07.500Z,20.20
2019-04-01T11:23:38.034Z,19.40
2019-04-01T11:26:08.363Z,19.00
2019-04-01T11:28:38.773Z,19.60
2019-04-01T11:31:09.200Z,20.00
2019-04-01T11:33:39.751Z,21.50
2019-04-01T11:36:10.245Z,22.30
2019-04-01T11:38:40.670Z,22.90
2019-04-01T11:41:11.166Z,23.10
2019-04-01T11:43:41.499Z,22.80
2019-04-01T11:46:12.661Z,22.10
2019-04-01T11:48:43.445Z,21.50
2019-04-01T11:51:13.868Z,21.20
2019-04-01T11:53:44.347Z,21.20
2019-04-01T11:56:14.877Z,20.90
2019-04-01T11:58:45.340Z,21.50
2019-04-01T12:01:15.667Z,21.60
2019-04-01T12:03:46.162Z,22.30
2019-04-01T12:06:16.618Z,22.50
2019-04-01T12:08:47.160Z,21.80
2019-04-01T12:11:17.640Z,22.20
2019-04-01T12:13:48.023Z,22.30
2019-04-01T12:16:18.498Z,22.00
2019-04-01T12:18:48.870Z,22.50
2019-04-01T12:21:19.271Z,22.30
2019-04-01T12:23:49.773Z,21.90
2019-04-01T12:26:20.213Z,21.60
2019-04-01T12:28:50.597Z,20.60
2019-04-01T12:31:21.768Z,20.60
2019-04-01T12:33:52.624Z,20.20
2019-04-01T12:36:23.022Z,20.40
2019-04-01T12:38:53.934Z,21.70
2019-04-01T12:41:24.562Z,22.50
2019-04-01T12:43:54.986Z,23.00
2019-04-01T12:46:25.494Z,23.90
2019-04-01T12:48:55.890Z,24.20
2019-04-01T12:51:26.413Z,23.50
2019-04-01T12:53:56.885Z,23.70
2019-04-01T12:56:27.431Z,24.20
2019-04-01T12:58:57.944Z,23.80
2019-04-01T13:01:28.408Z,23.10
2019-04-01T13:03:58.766Z,23.00
2019-04-01T13:06:29.182Z,23.50
2019-04-01T13:08:59.576Z,23.00
2019-04-01T13:11:30.061Z,22.70
2019-04-01T13:14:00.477Z,22.30
2019-04-01T13:16:30.944Z,22.10
2019-04-01T13:19:01.460Z,22.70
2019-04-01T13:21:34.563Z,21.50
2019-04-01T13:24:04.964Z,20.60
2019-04-01T13:26:35.601Z,20.30
2019-04-01T13:29:06.111Z,20.20
2019-04-01T13:31:36.566Z,19.90
2019-04-01T13:34:07.042Z,19.50
2019-04-01T13:36:37.509Z,19.00
2019-04-01T13:39:08.977Z,18.60
2019-04-01T13:41:42.615Z,18.70
2019-04-01T13:44:11.630Z,18.70
2019-04-01T13:46:42.031Z,19.00
2019-04-01T13:49:12.542Z,18.50
2019-04-01T13:51:43.827Z,18.70
2019-04-01T13:54:14.508Z,18.70
2019-04-01T13:56:45.044Z,18.70
2019-04-01T13:59:17.496Z,18.40
2019-04-01T14:01:47.845Z,18.10
2019-04-01T14:04:18.199Z,17.90
2019-04-01T14:06:48.636Z,17.80
2019-04-01T14:09:20.758Z,17.70
2019-04-01T14:11:51.484Z,17.60
2019-04-01T14:14:21.900Z,17.40
2019-04-01T14:16:52.403Z,17.40
2019-04-01T14:19:22.809Z,17.00
2019-04-01T14:21:53.215Z,17.10
2019-04-01T14:24:23.663Z,17.20
2019-04-01T14:26:56.582Z,17.50
2019-04-01T14:29:26.429Z,18.10
2019-04-01T14:31:56.895Z,18.20
2019-04-01T14:34:27.365Z,18.40
2019-04-01T14:36:57.791Z,18.70
2019-04-01T14:39:28.301Z,19.10
2019-04-01T14:41:58.683Z,19.20
2019-04-01T14:44:29.166Z,19.00
2019-04-01T14:46:59.613Z,19.00
2019-04-01T14:49:30.059Z,19.00
2019-04-01T14:52:00.598Z,18.80
2019-04-01T14:54:31.026Z,18.90
2019-04-01T14:57:01.408Z,18.70
2019-04-01T14:59:31.677Z,18.30
2019-04-01T15:02:03.794Z,17.70
2019-04-01T15:04:34.474Z,17.10
2019-04-01T15:07:04.911Z,16.90
2019-04-01T15:09:35.316Z,16.70
2019-04-01T15:12:05.809Z,16.60
2019-04-01T15:14:36.248Z,16.60
2019-04-01T15:17:06.717Z,16.50
2019-04-01T15:19:37.199Z,16.40
2019-04-01T15:22:07.698Z,16.40
2019-04-01T15:24:38.255Z,16.50
2019-04-01T15:27:08.679Z,16.50
2019-04-01T15:29:39.093Z,16.40
2019-04-01T15:32:09.584Z,16.10
2019-04-01T15:34:40.014Z,16.10
2019-04-01T15:37:10.399Z,16.00
2019-04-01T15:39:40.819Z,16.00
2019-04-01T15:42:11.281Z,16.10
2019-04-01T15:44:41.835Z,16.00
2019-04-01T15:47:12.261Z,15.90
2019-04-01T15:49:42.608Z,16.00
2019-04-01T15:52:13.059Z,15.80
2019-04-01T15:54:43.675Z,15.90
2019-04-01T15:57:15.355Z,15.70
2019-04-01T15:59:45.926Z,15.90
2019-04-01T16:02:16.375Z,15.90
2019-04-01T16:04:46.935Z,15.80
2019-04-01T16:07:17.416Z,15.90
2019-04-01T16:09:47.829Z,15.90
2019-04-01T16:12:18.211Z,15.80
2019-04-01T16:14:48.837Z,15.70
2019-04-01T16:17:19.266Z,15.70
2019-04-01T16:19:49.726Z,15.60
2019-04-01T16:22:20.164Z,15.60
2019-04-01T16:24:50.665Z,15.50
2019-04-01T16:27:21.270Z,15.60
2019-04-01T16:29:51.786Z,15.60
2019-04-01T16:32:22.264Z,15.50
2019-04-01T16:34:52.706Z,15.50
2019-04-01T16:37:23.109Z,15.50
2019-04-01T16:39:54.662Z,15.50
2019-04-01T16:42:25.380Z,15.50
2019-04-01T16:44:55.944Z,15.40
2019-04-01T16:47:26.432Z,15.40
2019-04-01T16:49:56.933Z,15.30
2019-04-01T16:52:27.412Z,15.30
2019-04-01T16:55:01.904Z,15.20
2019-04-01T16:57:32.387Z,15.20
2019-04-01T17:00:02.872Z,15.10
2019-04-01T17:02:33.399Z,15.10
2019-04-01T17:05:04.054Z,15.10
2019-04-01T17:07:34.581Z,15.10
2019-04-01T17:10:05.510Z,15.00
2019-04-01T17:12:36.093Z,14.90
2019-04-01T17:15:07.062Z,14.80
2019-04-01T17:17:37.959Z,14.70
2019-04-01T17:20:08.485Z,14.60
2019-04-01T17:22:39.038Z,14.60
2019-04-01T17:25:09.728Z,14.50
2019-04-01T17:27:40.277Z,14.40
2019-04-01T17:30:13.347Z,14.40
2019-04-01T17:32:43.889Z,14.30
2019-04-01T17:35:14.521Z,14.30
2019-04-01T17:37:45.076Z,14.20
2019-04-01T17:40:17.250Z,14.00
2019-04-01T17:42:47.979Z,13.90
2019-04-01T17:45:49.984Z,13.80
2019-04-01T17:48:20.459Z,13.80
2019-04-01T17:50:50.870Z,13.70
2019-04-01T17:53:21.352Z,13.60
2019-04-01T17:55:52.703Z,13.50
2019-04-01T17:58:23.074Z,13.40
2019-04-01T18:00:56.614Z,13.40
2019-04-01T18:03:27.523Z,13.30
2019-04-01T18:05:58.150Z,13.30
2019-04-01T18:08:28.680Z,13.10
2019-04-01T18:10:59.044Z,13.10
2019-04-01T18:13:29.478Z,12.90
2019-04-01T18:15:59.936Z,12.90
2019-04-01T18:18:33.818Z,12.70
2019-04-01T18:21:03.394Z,12.60
2019-04-01T18:23:34.215Z,12.40
2019-04-01T18:26:04.824Z,12.30
2019-04-01T18:28:35.247Z,12.20
2019-04-01T18:31:08.046Z,12.20
2019-04-01T18:33:39.828Z,12.20
2019-04-01T18:36:10.265Z,12.30
2019-04-01T18:38:41.195Z,12.30
2019-04-01T18:41:11.600Z,12.40
2019-04-01T18:43:42.204Z,12.40
2019-04-01T18:46:13.042Z,12.40
2019-04-01T18:48:43.601Z,12.40
2019-04-01T18:51:14.183Z,12.30
2019-04-01T18:53:44.631Z,12.20
2019-04-01T18:56:15.150Z,12.30
2019-04-01T18:58:45.754Z,12.30
2019-04-01T19:01:16.365Z,12.30
2019-04-01T19:03:46.960Z,12.20
2019-04-01T19:06:17.490Z,12.10
2019-04-01T19:08:47.930Z,12.10
2019-04-01T19:11:18.392Z,12.00
2019-04-01T19:13:48.958Z,11.80
2019-04-01T19:16:22.855Z,11.90
2019-04-01T19:18:51.628Z,11.90
2019-04-01T19:21:22.154Z,11.90
2019-04-01T19:23:52.651Z,11.80
2019-04-01T19:26:23.423Z,11.90
2019-04-01T19:28:57.991Z,11.80
2019-04-01T19:31:27.009Z,11.70
2019-04-01T19:33:57.438Z,11.70
2019-04-01T19:36:27.989Z,11.60
2019-04-01T19:38:58.387Z,11.50
2019-04-01T19:41:29.042Z,11.40
2019-04-01T19:43:59.583Z,11.30
2019-04-01T19:46:30.117Z,11.30
2019-04-01T19:49:04.752Z,11.30
2019-04-01T19:51:35.842Z,11.30
2019-04-01T19:54:05.101Z,11.20
2019-04-01T19:56:35.638Z,11.20
2019-04-01T19:59:06.173Z,11.20
2019-04-01T20:01:36.753Z,11.20
2019-04-01T20:04:07.306Z,11.10
2019-04-01T20:06:40.641Z,11.10
2019-04-01T20:09:10.285Z,11.00
2019-04-01T20:11:40.762Z,11.00
2019-04-01T20:14:11.641Z,11.00
2019-04-01T20:16:42.215Z,11.00
2019-04-01T20:19:12.652Z,10.90
2019-04-01T20:21:43.062Z,10.80
2019-04-01T20:24:13.514Z,10.80
2019-04-01T20:26:47.008Z,10.70
2019-04-01T20:29:17.531Z,10.80
2019-04-01T20:31:48.027Z,10.70
2019-04-01T20:34:19.880Z,10.80
2019-04-01T20:36:50.881Z,10.80
2019-04-01T20:39:22.287Z,10.80
2019-04-01T20:41:52.874Z,10.70
2019-04-01T20:44:23.297Z,10.70
2019-04-01T20:46:53.734Z,10.70
2019-04-01T20:49:24.210Z,10.60
2019-04-01T20:51:55.346Z,10.60
2019-04-01T20:54:25.667Z,10.60
2019-04-01T20:56:56.252Z,10.50
2019-04-01T20:59:26.658Z,10.50
2019-04-01T21:01:57.227Z,10.50
2019-04-01T21:04:27.691Z,10.40
2019-04-01T21:06:58.136Z,10.30
2019-04-01T21:09:28.572Z,10.20
2019-04-01T21:11:59.058Z,10.30
2019-04-01T21:14:29.562Z,10.20
2019-04-01T21:17:00.534Z,10.20
2019-04-01T21:19:31.148Z,10.20
2019-04-01T21:22:01.576Z,10.10
2019-04-01T21:24:32.002Z,10.10
2019-04-01T21:27:02.319Z,10.00
2019-04-01T21:29:32.860Z,9.90
2019-04-01T21:32:03.326Z,9.80
2019-04-01T21:34:33.732Z,9.90
2019-04-01T21:37:06.124Z,9.90
2019-04-01T21:39:37.805Z,9.80
2019-04-01T21:42:08.593Z,9.70
2019-04-01T21:44:39.083Z,9.60
2019-04-01T21:47:09.584Z,9.70
2019-04-01T21:49:40.036Z,9.70
2019-04-01T21:52:10.407Z,9.80
2019-04-01T21:54:40.875Z,9.80
2019-04-01T21:57:11.346Z,9.80
2019-04-01T21:59:41.892Z,9.70
2019-04-01T22:02:12.400Z,9.60
2019-04-01T22:04:42.845Z,9.50
2019-04-01T22:07:13.319Z,9.50
2019-04-01T22:09:43.760Z,9.40
2019-04-01T22:12:14.381Z,9.40
2019-04-01T22:14:44.942Z,9.30
2019-04-01T22:17:16.159Z,9.40
2019-04-01T22:19:47.553Z,9.40
2019-04-01T22:22:18.242Z,9.30
2019-04-01T22:24:48.890Z,9.30
2019-04-01T22:27:19.559Z,9.30
2019-04-01T22:29:49.948Z,9.20
2019-04-01T22:32:20.514Z,9.20
2019-04-01T22:34:51.050Z,9.10
2019-04-01T22:37:27.218Z,9.00
2019-04-01T22:39:53.924Z,9.00
2019-04-01T22:42:24.538Z,8.90
2019-04-01T22:44:55.112Z,8.90
2019-04-01T22:47:25.751Z,8.90
2019-04-01T22:49:56.463Z,8.90
2019-04-01T22:52:26.789Z,8.80
2019-04-01T22:54:58.255Z,8.80
2019-04-01T22:57:29.733Z,8.70
2019-04-01T23:00:00.160Z,8.70
2019-04-01T23:02:30.656Z,8.70
2019-04-01T23:05:01.126Z,8.70
2019-04-01T23:07:33.027Z,8.70
2019-04-01T23:10:04.048Z,8.50
2019-04-01T23:12:34.573Z,8.50
2019-04-01T23:15:05.798Z,8.50
2019-04-01T23:17:38.274Z,8.40
2019-04-01T23:20:09.642Z,8.40
2019-04-01T23:22:40.219Z,8.40
2019-04-01T23:25:10.734Z,8.30
2019-04-01T23:27:41.363Z,8.30
2019-04-01T23:30:13.509Z,8.20
2019-04-01T23:32:45.288Z,8.20
2019-04-01T23:35:15.941Z,8.20
2019-04-01T23:37:46.542Z,8.10
2019-04-01T23:40:17.325Z,8.10
2019-04-01T23:42:47.830Z,8.10
2019-04-01T23:45:18.356Z,8.10
2019-04-01T23:47:48.926Z,8.00
2019-04-01T23:50:19.670Z,7.90
2019-04-01T23:52:50.234Z,7.80
2019-04-01T23:55:20.753Z,7.80
2019-04-01T23:57:51.257Z,7.80
